CheckWX is a tool to help pilots better visualize weather data.  It is not intended as a substitute for an official pre-flight weather briefing.

15:42:51 UTC

YPAD METAR
Adelaide International Airport
Adelaide, Australia
Current

43 mins ago

YPAD 211500Z 16005KT 9999 FEW035 13/09 Q1017 NOSIG
Observed
Nov-21 @ 15:00 UTC
Wind
  • 160° at 5 KTS
Visibility
10,000+ meters
Flight Rules
VFR
Cloud Levels
  • Few at 3,500' AGL
Temperature
13°C / 55°F
Dewpoint
C / 48°F
Humidity
77%
Altimeter
30.03" Hg
Pressure
1016.92 hPa
Previous

1 hour ago

YPAD 211430Z 16006KT 9999 FEW035 13/09 Q1017 NOSIG
Observed
Nov-21 @ 14:30 UTC
Wind
  • 160° at 6 KTS
Visibility
10,000+ meters
Flight Rules
VFR
Cloud Levels
  • Few at 3,500' AGL
Temperature
13°C / 55°F
Dewpoint
C / 48°F
Humidity
77%
Altimeter
30.03" Hg
Pressure
1016.92 hPa
Previous

2 hours ago

YPAD 211400Z 17007KT 9999 FEW035 14/09 Q1017 NOSIG
Observed
Nov-21 @ 14:00 UTC
Wind
  • 170° at 7 KTS
Visibility
10,000+ meters
Flight Rules
VFR
Cloud Levels
  • Few at 3,500' AGL
Temperature
14°C / 57°F
Dewpoint
C / 48°F
Humidity
72%
Altimeter
30.03" Hg
Pressure
1016.92 hPa